sensor_id;sensor_type;location;lat;lon;timestamp;pressure;altitude;pressure_sealevel;temperature;humidity
21588;BME280;10956;48.878;13.316;2023-06-22T00:01:50;94536.38;;;17.21;100.00
21588;BME280;10956;48.878;13.316;2023-06-22T00:04:16;94531.06;;;17.21;100.00
21588;BME280;10956;48.878;13.316;2023-06-22T00:06:41;94532.13;;;17.20;100.00
21588;BME280;10956;48.878;13.316;2023-06-22T00:09:07;94531.66;;;17.18;100.00
21588;BME280;10956;48.878;13.316;2023-06-22T00:11:35;94522.88;;;17.17;100.00
21588;BME280;10956;48.878;13.316;2023-06-22T00:14:01;94526.91;;;17.15;100.00
21588;BME280;10956;48.878;13.316;2023-06-22T00:16:27;94528.78;;;17.14;100.00
21588;BME280;10956;48.878;13.316;2023-06-22T00:18:52;94530.66;;;17.14;100.00
21588;BME280;10956;48.878;13.316;2023-06-22T00:21:18;94523.56;;;17.09;100.00
21588;BME280;10956;48.878;13.316;2023-06-22T00:23:46;94524.16;;;17.06;100.00
21588;BME280;10956;48.878;13.316;2023-06-22T00:26:12;94533.84;;;17.02;100.00
21588;BME280;10956;48.878;13.316;2023-06-22T00:28:38;94532.84;;;16.98;100.00
21588;BME280;10956;48.878;13.316;2023-06-22T00:31:03;94523.59;;;16.95;100.00
21588;BME280;10956;48.878;13.316;2023-06-22T00:33:29;94525.75;;;16.93;100.00
21588;BME280;10956;48.878;13.316;2023-06-22T00:35:54;94512.94;;;16.95;100.00
21588;BME280;10956;48.878;13.316;2023-06-22T00:38:20;94516.09;;;16.97;100.00
21588;BME280;10956;48.878;13.316;2023-06-22T00:40:46;94511.34;;;16.94;100.00
21588;BME280;10956;48.878;13.316;2023-06-22T00:43:11;94517.28;;;16.91;100.00
21588;BME280;10956;48.878;13.316;2023-06-22T00:45:37;94517.56;;;16.90;100.00
21588;BME280;10956;48.878;13.316;2023-06-22T00:48:03;94511.56;;;16.84;100.00
21588;BME280;10956;48.878;13.316;2023-06-22T00:50:30;94511.56;;;16.84;100.00
21588;BME280;10956;48.878;13.316;2023-06-22T00:53:02;94495.59;;;16.84;100.00
21588;BME280;10956;48.878;13.316;2023-06-22T00:55:32;94489.97;;;16.86;100.00
21588;BME280;10956;48.878;13.316;2023-06-22T00:57:57;94489.19;;;16.85;100.00
21588;BME280;10956;48.878;13.316;2023-06-22T01:00:24;94487.13;;;16.82;100.00
21588;BME280;10956;48.878;13.316;2023-06-22T01:02:51;94475.97;;;16.80;100.00
21588;BME280;10956;48.878;13.316;2023-06-22T01:05:19;94471.75;;;16.79;100.00
21588;BME280;10956;48.878;13.316;2023-06-22T01:10:27;94460.22;;;16.70;100.00
21588;BME280;10956;48.878;13.316;2023-06-22T01:13:00;94459.72;;;16.68;100.00
21588;BME280;10956;48.878;13.316;2023-06-22T01:18:14;94469.28;;;16.69;100.00
21588;BME280;10956;48.878;13.316;2023-06-22T01:20:41;94468.50;;;16.68;100.00
21588;BME280;10956;48.878;13.316;2023-06-22T01:23:33;94455.97;;;16.69;100.00
21588;BME280;10956;48.878;13.316;2023-06-22T01:26:12;94450.66;;;16.69;100.00
21588;BME280;10956;48.878;13.316;2023-06-22T01:28:48;94447.91;;;16.74;100.00
21588;BME280;10956;48.878;13.316;2023-06-22T01:31:17;94441.59;;;16.70;100.00
21588;BME280;10956;48.878;13.316;2023-06-22T01:33:45;94440.03;;;16.69;100.00
21588;BME280;10956;48.878;13.316;2023-06-22T01:36:13;94447.50;;;16.67;100.00
21588;BME280;10956;48.878;13.316;2023-06-22T01:38:39;94443.75;;;16.68;100.00
21588;BME280;10956;48.878;13.316;2023-06-22T01:41:04;94438.44;;;16.68;100.00
21588;BME280;10956;48.878;13.316;2023-06-22T01:43:31;94430.47;;;16.68;100.00
21588;BME280;10956;48.878;13.316;2023-06-22T01:46:00;94432.91;;;16.64;100.00
21588;BME280;10956;48.878;13.316;2023-06-22T01:48:26;94444.34;;;16.65;100.00
21588;BME280;10956;48.878;13.316;2023-06-22T01:50:53;94433.97;;;16.63;100.00
21588;BME280;10956;48.878;13.316;2023-06-22T01:53:21;94450.72;;;16.64;100.00
21588;BME280;10956;48.878;13.316;2023-06-22T01:55:46;94445.50;;;16.59;100.00
21588;BME280;10956;48.878;13.316;2023-06-22T01:58:12;94448.66;;;16.61;100.00
21588;BME280;10956;48.878;13.316;2023-06-22T02:00:40;94438.63;;;16.58;100.00
21588;BME280;10956;48.878;13.316;2023-06-22T02:03:14;94441.38;;;16.53;100.00
21588;BME280;10956;48.878;13.316;2023-06-22T02:05:50;94443.34;;;16.47;100.00
21588;BME280;10956;48.878;13.316;2023-06-22T02:08:41;94431.91;;;16.46;100.00
21588;BME280;10956;48.878;13.316;2023-06-22T02:11:08;94442.06;;;16.44;100.00
21588;BME280;10956;48.878;13.316;2023-06-22T02:13:36;94429.56;;;16.45;100.00
21588;BME280;10956;48.878;13.316;2023-06-22T02:16:02;94435.66;;;16.45;100.00
21588;BME280;10956;48.878;13.316;2023-06-22T02:18:27;94430.16;;;16.42;100.00
21588;BME280;10956;48.878;13.316;2023-06-22T02:20:53;94438.72;;;16.39;100.00
21588;BME280;10956;48.878;13.316;2023-06-22T02:23:18;94419.91;;;16.35;100.00
21588;BME280;10956;48.878;13.316;2023-06-22T02:25:44;94413.50;;;16.36;100.00
21588;BME280;10956;48.878;13.316;2023-06-22T02:28:09;94416.75;;;16.33;100.00
21588;BME280;10956;48.878;13.316;2023-06-22T02:30:35;94423.66;;;16.34;100.00
21588;BME280;10956;48.878;13.316;2023-06-22T02:33:00;94428.38;;;16.37;100.00
21588;BME280;10956;48.878;13.316;2023-06-22T02:35:26;94430.75;;;16.39;100.00
21588;BME280;10956;48.878;13.316;2023-06-22T02:37:52;94427.78;;;16.40;100.00
21588;BME280;10956;48.878;13.316;2023-06-22T02:40:17;94436.84;;;16.39;100.00
21588;BME280;10956;48.878;13.316;2023-06-22T02:42:43;94438.91;;;16.42;100.00
21588;BME280;10956;48.878;13.316;2023-06-22T02:45:09;94430.34;;;16.45;100.00
21588;BME280;10956;48.878;13.316;2023-06-22T02:47:34;94440.41;;;16.48;100.00
21588;BME280;10956;48.878;13.316;2023-06-22T02:50:00;94449.47;;;16.47;100.00
21588;BME280;10956;48.878;13.316;2023-06-22T02:52:26;94458.53;;;16.46;100.00
21588;BME280;10956;48.878;13.316;2023-06-22T02:54:51;94462.25;;;16.45;100.00
21588;BME280;10956;48.878;13.316;2023-06-22T02:57:17;94460.09;;;16.47;100.00
21588;BME280;10956;48.878;13.316;2023-06-22T02:59:42;94468.56;;;16.50;100.00
21588;BME280;10956;48.878;13.316;2023-06-22T03:02:08;94467.97;;;16.53;100.00
21588;BME280;10956;48.878;13.316;2023-06-22T03:04:35;94463.66;;;16.57;100.00
21588;BME280;10956;48.878;13.316;2023-06-22T03:07:00;94464.13;;;16.59;100.00
21588;BME280;10956;48.878;13.316;2023-06-22T03:09:29;94461.66;;;16.62;100.00
21588;BME280;10956;48.878;13.316;2023-06-22T03:11:55;94463.47;;;16.67;100.00
21588;BME280;10956;48.878;13.316;2023-06-22T03:14:20;94460.72;;;16.72;100.00
21588;BME280;10956;48.878;13.316;2023-06-22T03:16:46;94452.44;;;16.73;100.00
21588;BME280;10956;48.878;13.316;2023-06-22T03:19:12;94454.19;;;16.78;100.00
21588;BME280;10956;48.878;13.316;2023-06-22T03:21:38;94451.44;;;16.83;100.00
21588;BME280;10956;48.878;13.316;2023-06-22T03:24:04;94449.16;;;16.90;100.00
21588;BME280;10956;48.878;13.316;2023-06-22T03:26:30;94452.19;;;16.97;100.00
21588;BME280;10956;48.878;13.316;2023-06-22T03:28:55;94447.25;;;17.04;100.00
21588;BME280;10956;48.878;13.316;2023-06-22T03:31:21;94441.69;;;17.15;100.00
21588;BME280;10956;48.878;13.316;2023-06-22T03:33:48;94443.06;;;17.26;100.00
21588;BME280;10956;48.878;13.316;2023-06-22T03:36:14;94438.28;;;17.36;100.00
21588;BME280;10956;48.878;13.316;2023-06-22T03:38:44;94434.91;;;17.44;100.00
21588;BME280;10956;48.878;13.316;2023-06-22T03:41:09;94430.72;;;17.52;100.00
21588;BME280;10956;48.878;13.316;2023-06-22T03:43:35;94428.91;;;17.61;100.00
21588;BME280;10956;48.878;13.316;2023-06-22T03:46:00;94417.06;;;17.67;100.00
21588;BME280;10956;48.878;13.316;2023-06-22T03:48:25;94422.13;;;17.78;100.00
21588;BME280;10956;48.878;13.316;2023-06-22T03:50:51;94419.34;;;17.83;100.00
21588;BME280;10956;48.878;13.316;2023-06-22T03:53:16;94416.72;;;17.91;100.00
21588;BME280;10956;48.878;13.316;2023-06-22T03:55:52;94419.13;;;18.01;100.00
21588;BME280;10956;48.878;13.316;2023-06-22T03:58:18;94416.38;;;18.15;100.00
21588;BME280;10956;48.878;13.316;2023-06-22T04:00:52;94415.97;;;18.30;100.00
21588;BME280;10956;48.878;13.316;2023-06-22T04:03:18;94417.72;;;18.44;100.00
21588;BME280;10956;48.878;13.316;2023-06-22T04:05:44;94409.28;;;18.59;100.00
21588;BME280;10956;48.878;13.316;2023-06-22T04:08:10;94411.09;;;18.72;100.00
21588;BME280;10956;48.878;13.316;2023-06-22T04:10:35;94409.38;;;18.85;100.00
21588;BME280;10956;48.878;13.316;2023-06-22T04:13:01;94404.22;;;18.97;100.00
21588;BME280;10956;48.878;13.316;2023-06-22T04:15:26;94400.63;;;19.10;100.00
21588;BME280;10956;48.878;13.316;2023-06-22T04:17:52;94401.56;;;19.23;100.00
21588;BME280;10956;48.878;13.316;2023-06-22T04:20:17;94402.81;;;19.34;100.00
21588;BME280;10956;48.878;13.316;2023-06-22T04:22:42;94398.56;;;19.42;100.00
21588;BME280;10956;48.878;13.316;2023-06-22T04:25:08;94394.94;;;19.46;100.00
21588;BME280;10956;48.878;13.316;2023-06-22T04:27:34;94400.31;;;19.55;100.00
21588;BME280;10956;48.878;13.316;2023-06-22T04:30:06;94394.00;;;19.59;100.00
21588;BME280;10956;48.878;13.316;2023-06-22T04:32:33;94405.00;;;19.66;100.00
21588;BME280;10956;48.878;13.316;2023-06-22T04:34:58;94403.75;;;19.73;100.00
21588;BME280;10956;48.878;13.316;2023-06-22T04:37:25;94407.81;;;19.79;100.00
21588;BME280;10956;48.878;13.316;2023-06-22T04:39:51;94402.44;;;19.87;100.00
21588;BME280;10956;48.878;13.316;2023-06-22T04:42:17;94407.31;;;19.94;100.00
21588;BME280;10956;48.878;13.316;2023-06-22T04:44:42;94408.72;;;20.00;100.00
21588;BME280;10956;48.878;13.316;2023-06-22T04:47:08;94413.88;;;20.05;100.00
21588;BME280;10956;48.878;13.316;2023-06-22T04:49:35;94414.66;;;20.14;100.00
21588;BME280;10956;48.878;13.316;2023-06-22T04:52:07;94414.28;;;20.24;100.00
21588;BME280;10956;48.878;13.316;2023-06-22T04:54:33;94409.38;;;20.35;100.00
21588;BME280;10956;48.878;13.316;2023-06-22T04:57:07;94413.75;;;20.48;100.00
21588;BME280;10956;48.878;13.316;2023-06-22T04:59:37;94413.91;;;20.52;100.00
21588;BME280;10956;48.878;13.316;2023-06-22T05:02:04;94410.91;;;20.53;100.00
21588;BME280;10956;48.878;13.316;2023-06-22T05:04:31;94410.84;;;20.62;100.00
21588;BME280;10956;48.878;13.316;2023-06-22T05:06:57;94406.69;;;20.73;100.00
21588;BME280;10956;48.878;13.316;2023-06-22T05:09:23;94407.88;;;20.84;100.00
21588;BME280;10956;48.878;13.316;2023-06-22T05:11:50;94408.94;;;20.92;100.00
21588;BME280;10956;48.878;13.316;2023-06-22T05:14:15;94411.25;;;21.02;100.00
21588;BME280;10956;48.878;13.316;2023-06-22T05:16:41;94411.00;;;21.16;100.00
21588;BME280;10956;48.878;13.316;2023-06-22T05:19:07;94415.34;;;21.29;100.00
21588;BME280;10956;48.878;13.316;2023-06-22T05:21:32;94416.19;;;21.42;100.00
21588;BME280;10956;48.878;13.316;2023-06-22T05:23:58;94428.66;;;21.58;100.00
21588;BME280;10956;48.878;13.316;2023-06-22T05:26:29;94423.13;;;21.76;100.00
21588;BME280;10956;48.878;13.316;2023-06-22T05:28:55;94413.56;;;21.87;100.00
21588;BME280;10956;48.878;13.316;2023-06-22T05:31:21;94416.59;;;21.98;100.00
21588;BME280;10956;48.878;13.316;2023-06-22T05:33:47;94418.09;;;22.07;100.00
21588;BME280;10956;48.878;13.316;2023-06-22T05:36:13;94414.53;;;22.15;100.00
21588;BME280;10956;48.878;13.316;2023-06-22T05:38:39;94415.22;;;22.24;100.00
21588;BME280;10956;48.878;13.316;2023-06-22T05:41:05;94412.78;;;22.32;100.00
21588;BME280;10956;48.878;13.316;2023-06-22T05:43:31;94406.97;;;22.42;99.55
21588;BME280;10956;48.878;13.316;2023-06-22T05:45:57;94409.88;;;22.49;99.10
21588;BME280;10956;48.878;13.316;2023-06-22T05:48:22;94415.25;;;22.61;98.64
21588;BME280;10956;48.878;13.316;2023-06-22T05:50:48;94407.19;;;22.73;97.89
21588;BME280;10956;48.878;13.316;2023-06-22T05:53:13;94406.78;;;22.83;98.35
21588;BME280;10956;48.878;13.316;2023-06-22T05:55:39;94399.38;;;22.93;97.99
21588;BME280;10956;48.878;13.316;2023-06-22T05:58:04;94403.84;;;23.01;97.71
21588;BME280;10956;48.878;13.316;2023-06-22T06:00:30;94406.84;;;23.11;97.08
21588;BME280;10956;48.878;13.316;2023-06-22T06:02:56;94397.09;;;23.19;97.14
21588;BME280;10956;48.878;13.316;2023-06-22T06:05:21;94398.84;;;23.27;96.42
21588;BME280;10956;48.878;13.316;2023-06-22T06:07:48;94398.38;;;23.37;96.23
21588;BME280;10956;48.878;13.316;2023-06-22T06:10:13;94396.78;;;23.48;96.68
21588;BME280;10956;48.878;13.316;2023-06-22T06:12:39;94401.25;;;23.57;98.20
21588;BME280;10956;48.878;13.316;2023-06-22T06:15:05;94389.91;;;23.63;98.98
21588;BME280;10956;48.878;13.316;2023-06-22T06:17:30;94392.34;;;23.68;99.93
21588;BME280;10956;48.878;13.316;2023-06-22T06:19:56;94393.41;;;23.79;100.00
21588;BME280;10956;48.878;13.316;2023-06-22T06:22:21;94390.66;;;23.92;100.00
21588;BME280;10956;48.878;13.316;2023-06-22T06:24:48;94387.13;;;24.03;100.00
21588;BME280;10956;48.878;13.316;2023-06-22T06:27:14;94399.63;;;24.11;100.00
21588;BME280;10956;48.878;13.316;2023-06-22T06:29:39;94398.25;;;24.17;100.00
21588;BME280;10956;48.878;13.316;2023-06-22T06:32:05;94400.34;;;24.24;100.00
21588;BME280;10956;48.878;13.316;2023-06-22T06:34:30;94389.16;;;24.38;100.00
21588;BME280;10956;48.878;13.316;2023-06-22T06:36:56;94387.94;;;24.51;100.00
21588;BME280;10956;48.878;13.316;2023-06-22T06:39:21;94385.59;;;24.65;100.00
21588;BME280;10956;48.878;13.316;2023-06-22T06:41:46;94375.91;;;24.80;100.00
21588;BME280;10956;48.878;13.316;2023-06-22T06:44:12;94383.53;;;24.94;100.00
21588;BME280;10956;48.878;13.316;2023-06-22T06:46:37;94380.41;;;25.07;100.00
21588;BME280;10956;48.878;13.316;2023-06-22T06:49:03;94379.06;;;25.17;100.00
21588;BME280;10956;48.878;13.316;2023-06-22T06:51:28;94367.72;;;25.27;99.88
21588;BME280;10956;48.878;13.316;2023-06-22T06:53:54;94370.28;;;25.39;100.00
21588;BME280;10956;48.878;13.316;2023-06-22T06:56:19;94361.84;;;25.41;99.12
21588;BME280;10956;48.878;13.316;2023-06-22T06:58:45;94375.25;;;25.37;96.32
21588;BME280;10956;48.878;13.316;2023-06-22T07:01:12;94381.06;;;25.39;97.12
21588;BME280;10956;48.878;13.316;2023-06-22T07:03:38;94371.56;;;25.46;96.37
21588;BME280;10956;48.878;13.316;2023-06-22T07:06:03;94369.28;;;25.48;96.58
21588;BME280;10956;48.878;13.316;2023-06-22T07:08:29;94363.53;;;25.49;98.84
21588;BME280;10956;48.878;13.316;2023-06-22T07:10:54;94359.91;;;25.41;98.55
21588;BME280;10956;48.878;13.316;2023-06-22T07:13:19;94367.31;;;25.44;98.93
21588;BME280;10956;48.878;13.316;2023-06-22T07:15:45;94366.31;;;25.53;99.11
21588;BME280;10956;48.878;13.316;2023-06-22T07:18:10;94357.06;;;25.54;99.67
21588;BME280;10956;48.878;13.316;2023-06-22T07:20:36;94357.91;;;25.58;98.35
21588;BME280;10956;48.878;13.316;2023-06-22T07:23:01;94353.66;;;25.57;99.14
21588;BME280;10956;48.878;13.316;2023-06-22T07:25:26;94362.59;;;25.61;96.07
21588;BME280;10956;48.878;13.316;2023-06-22T07:28:02;94361.63;;;25.69;94.74
21588;BME280;10956;48.878;13.316;2023-06-22T07:30:29;94355.59;;;25.75;94.88
21588;BME280;10956;48.878;13.316;2023-06-22T07:32:55;94354.09;;;25.78;94.81
21588;BME280;10956;48.878;13.316;2023-06-22T07:35:20;94357.28;;;25.84;94.32
21588;BME280;10956;48.878;13.316;2023-06-22T07:37:46;94351.88;;;25.84;92.65
21588;BME280;10956;48.878;13.316;2023-06-22T07:40:12;94348.75;;;25.82;92.06
21588;BME280;10956;48.878;13.316;2023-06-22T07:42:38;94344.97;;;25.86;90.94
21588;BME280;10956;48.878;13.316;2023-06-22T07:45:04;94347.81;;;25.93;88.92
21588;BME280;10956;48.878;13.316;2023-06-22T07:47:30;94344.41;;;25.96;89.48
21588;BME280;10956;48.878;13.316;2023-06-22T07:49:58;94342.84;;;25.95;86.50
21588;BME280;10956;48.878;13.316;2023-06-22T07:52:26;94335.16;;;25.97;85.48
21588;BME280;10956;48.878;13.316;2023-06-22T07:54:52;94334.84;;;26.02;84.35
21588;BME280;10956;48.878;13.316;2023-06-22T07:57:17;94339.97;;;26.07;83.77
21588;BME280;10956;48.878;13.316;2023-06-22T07:59:43;94349.25;;;26.10;83.02
21588;BME280;10956;48.878;13.316;2023-06-22T08:02:09;94342.34;;;26.13;83.62
21588;BME280;10956;48.878;13.316;2023-06-22T08:04:35;94340.50;;;26.17;82.97
21588;BME280;10956;48.878;13.316;2023-06-22T08:07:01;94341.63;;;26.16;82.21
21588;BME280;10956;48.878;13.316;2023-06-22T08:09:30;94335.81;;;26.14;82.28
21588;BME280;10956;48.878;13.316;2023-06-22T08:11:56;94343.63;;;26.19;81.73
21588;BME280;10956;48.878;13.316;2023-06-22T08:14:22;94330.13;;;26.19;81.62
21588;BME280;10956;48.878;13.316;2023-06-22T08:16:48;94328.97;;;26.20;81.33
21588;BME280;10956;48.878;13.316;2023-06-22T08:19:13;94333.19;;;26.17;80.80
21588;BME280;10956;48.878;13.316;2023-06-22T08:21:39;94334.72;;;26.18;81.72
21588;BME280;10956;48.878;13.316;2023-06-22T08:24:04;94333.97;;;26.18;78.22
21588;BME280;10956;48.878;13.316;2023-06-22T08:26:30;94332.50;;;26.24;80.42
21588;BME280;10956;48.878;13.316;2023-06-22T08:28:55;94324.97;;;26.33;80.70
21588;BME280;10956;48.878;13.316;2023-06-22T08:31:20;94328.09;;;26.35;79.90
21588;BME280;10956;48.878;13.316;2023-06-22T08:33:46;94321.97;;;26.38;78.48
21588;BME280;10956;48.878;13.316;2023-06-22T08:36:11;94317.41;;;26.42;78.87
21588;BME280;10956;48.878;13.316;2023-06-22T08:38:38;94322.78;;;26.42;77.87
21588;BME280;10956;48.878;13.316;2023-06-22T08:41:04;94325.19;;;26.47;77.73
21588;BME280;10956;48.878;13.316;2023-06-22T08:43:29;94322.91;;;26.49;75.73
21588;BME280;10956;48.878;13.316;2023-06-22T08:45:55;94322.59;;;26.54;75.94
21588;BME280;10956;48.878;13.316;2023-06-22T08:48:20;94309.91;;;26.58;75.49
21588;BME280;10956;48.878;13.316;2023-06-22T08:50:45;94310.06;;;26.69;75.86
21588;BME280;10956;48.878;13.316;2023-06-22T08:53:11;94314.03;;;26.75;75.69
21588;BME280;10956;48.878;13.316;2023-06-22T08:55:36;94315.69;;;26.83;74.86
21588;BME280;10956;48.878;13.316;2023-06-22T08:58:01;94311.88;;;26.88;74.07
21588;BME280;10956;48.878;13.316;2023-06-22T09:00:27;94312.69;;;26.92;73.84
21588;BME280;10956;48.878;13.316;2023-06-22T09:02:54;94308.13;;;26.96;73.37
21588;BME280;10956;48.878;13.316;2023-06-22T09:05:24;94317.50;;;27.02;72.89
21588;BME280;10956;48.878;13.316;2023-06-22T09:07:51;94321.44;;;27.08;74.67
21588;BME280;10956;48.878;13.316;2023-06-22T09:10:17;94321.53;;;27.15;73.62
21588;BME280;10956;48.878;13.316;2023-06-22T09:12:42;94316.22;;;27.22;73.71
21588;BME280;10956;48.878;13.316;2023-06-22T09:15:08;94322.50;;;27.30;74.09
21588;BME280;10956;48.878;13.316;2023-06-22T09:17:33;94312.06;;;27.32;73.29
21588;BME280;10956;48.878;13.316;2023-06-22T09:20:00;94308.59;;;27.31;72.32
21588;BME280;10956;48.878;13.316;2023-06-22T09:22:25;94309.09;;;27.41;71.89
21588;BME280;10956;48.878;13.316;2023-06-22T09:24:55;94307.28;;;27.52;72.91
21588;BME280;10956;48.878;13.316;2023-06-22T09:27:21;94297.28;;;27.56;73.28
21588;BME280;10956;48.878;13.316;2023-06-22T09:29:46;94303.47;;;27.56;72.87
21588;BME280;10956;48.878;13.316;2023-06-22T09:32:11;94303.47;;;27.56;73.64
21588;BME280;10956;48.878;13.316;2023-06-22T09:34:37;94305.88;;;27.61;74.39
21588;BME280;10956;48.878;13.316;2023-06-22T09:37:02;94309.03;;;27.67;74.59
21588;BME280;10956;48.878;13.316;2023-06-22T09:39:28;94299.81;;;27.75;74.94
21588;BME280;10956;48.878;13.316;2023-06-22T09:41:53;94295.25;;;27.83;74.41
21588;BME280;10956;48.878;13.316;2023-06-22T09:44:18;94291.03;;;27.85;73.77
21588;BME280;10956;48.878;13.316;2023-06-22T09:46:44;94293.31;;;27.83;74.01
21588;BME280;10956;48.878;13.316;2023-06-22T09:49:09;94299.22;;;27.92;73.60
21588;BME280;10956;48.878;13.316;2023-06-22T09:51:34;94294.59;;;27.96;74.16
21588;BME280;10956;48.878;13.316;2023-06-22T09:54:00;94293.84;;;27.99;74.50
21588;BME280;10956;48.878;13.316;2023-06-22T09:56:25;94280.78;;;28.09;75.06
21588;BME280;10956;48.878;13.316;2023-06-22T09:58:53;94296.28;;;28.12;75.70
21588;BME280;10956;48.878;13.316;2023-06-22T10:01:19;94291.66;;;28.16;75.01
21588;BME280;10956;48.878;13.316;2023-06-22T10:03:45;94290.91;;;28.19;74.48
21588;BME280;10956;48.878;13.316;2023-06-22T10:06:11;94287.06;;;28.20;73.50
21588;BME280;10956;48.878;13.316;2023-06-22T10:08:36;94280.53;;;28.24;76.10
21588;BME280;10956;48.878;13.316;2023-06-22T10:11:02;94278.56;;;28.21;74.99
21588;BME280;10956;48.878;13.316;2023-06-22T10:13:28;94283.19;;;28.21;73.83
21588;BME280;10956;48.878;13.316;2023-06-22T10:15:53;94275.81;;;28.18;73.78
21588;BME280;10956;48.878;13.316;2023-06-22T10:18:19;94275.50;;;28.23;73.64
21588;BME280;10956;48.878;13.316;2023-06-22T10:20:47;94270.88;;;28.27;71.87
21588;BME280;10956;48.878;13.316;2023-06-22T10:23:13;94269.34;;;28.26;70.71
21588;BME280;10956;48.878;13.316;2023-06-22T10:25:38;94274.06;;;28.36;73.87
21588;BME280;10956;48.878;13.316;2023-06-22T10:28:04;94265.56;;;28.41;71.77
21588;BME280;10956;48.878;13.316;2023-06-22T10:30:29;94269.47;;;28.47;72.17
21588;BME280;10956;48.878;13.316;2023-06-22T10:32:54;94264.88;;;28.51;71.79
21588;BME280;10956;48.878;13.316;2023-06-22T10:35:20;94269.47;;;28.47;72.35
21588;BME280;10956;48.878;13.316;2023-06-22T10:37:46;94267.94;;;28.46;69.98
21588;BME280;10956;48.878;13.316;2023-06-22T10:40:13;94263.31;;;28.50;71.06
21588;BME280;10956;48.878;13.316;2023-06-22T10:42:40;94254.81;;;28.55;71.73
21588;BME280;10956;48.878;13.316;2023-06-22T10:45:06;94247.09;;;28.57;70.28
21588;BME280;10956;48.878;13.316;2023-06-22T10:47:32;94246.69;;;28.55;69.80
21588;BME280;10956;48.878;13.316;2023-06-22T10:49:57;94252.88;;;28.56;67.79
21588;BME280;10956;48.878;13.316;2023-06-22T10:52:22;94241.66;;;28.57;68.38
21588;BME280;10956;48.878;13.316;2023-06-22T10:54:48;94249.03;;;28.60;68.38
21588;BME280;10956;48.878;13.316;2023-06-22T10:57:13;94239.34;;;28.56;69.09
21588;BME280;10956;48.878;13.316;2023-06-22T10:59:39;94254.44;;;28.57;68.84
21588;BME280;10956;48.878;13.316;2023-06-22T11:02:04;94245.56;;;28.63;68.72
21588;BME280;10956;48.878;13.316;2023-06-22T11:04:30;94240.94;;;28.68;66.76
21588;BME280;10956;48.878;13.316;2023-06-22T11:06:55;94244.84;;;28.74;67.12
21588;BME280;10956;48.878;13.316;2023-06-22T11:09:21;94244.88;;;28.81;66.71
21588;BME280;10956;48.878;13.316;2023-06-22T11:11:47;94248.06;;;28.90;65.08
21588;BME280;10956;48.878;13.316;2023-06-22T11:14:13;94241.09;;;28.89;63.99
21588;BME280;10956;48.878;13.316;2023-06-22T11:16:39;94245.75;;;28.92;66.30
21588;BME280;10956;48.878;13.316;2023-06-22T11:19:05;94248.06;;;28.93;67.27
21588;BME280;10956;48.878;13.316;2023-06-22T11:21:31;94241.88;;;28.93;64.73
21588;BME280;10956;48.878;13.316;2023-06-22T11:23:57;94248.09;;;28.97;65.40
21588;BME280;10956;48.878;13.316;2023-06-22T11:26:22;94237.25;;;29.01;65.65
21588;BME280;10956;48.878;13.316;2023-06-22T11:28:47;94239.63;;;29.09;65.61
21588;BME280;10956;48.878;13.316;2023-06-22T11:31:13;94240.41;;;29.13;63.58
21588;BME280;10956;48.878;13.316;2023-06-22T11:33:39;94236.56;;;29.21;66.82
21588;BME280;10956;48.878;13.316;2023-06-22T11:36:05;94235.41;;;29.26;67.80
21588;BME280;10956;48.878;13.316;2023-06-22T11:38:30;94232.72;;;29.30;65.97
21588;BME280;10956;48.878;13.316;2023-06-22T11:40:58;94236.59;;;29.29;64.66
21588;BME280;10956;48.878;13.316;2023-06-22T11:43:23;94235.81;;;29.32;64.70
21588;BME280;10956;48.878;13.316;2023-06-22T11:45:49;94226.50;;;29.33;65.40
21588;BME280;10956;48.878;13.316;2023-06-22T11:48:15;94235.03;;;29.27;64.11
21588;BME280;10956;48.878;13.316;2023-06-22T11:50:41;94226.09;;;29.23;61.93
21588;BME280;10956;48.878;13.316;2023-06-22T11:53:06;94221.06;;;29.25;63.76
21588;BME280;10956;48.878;13.316;2023-06-22T11:55:32;94223.78;;;29.25;64.92
21588;BME280;10956;48.878;13.316;2023-06-22T11:57:57;94224.94;;;29.24;64.38
21588;BME280;10956;48.878;13.316;2023-06-22T12:00:28;94224.94;;;29.24;62.96
21588;BME280;10956;48.878;13.316;2023-06-22T12:02:55;94224.16;;;29.20;63.70
21588;BME280;10956;48.878;13.316;2023-06-22T12:05:21;94214.06;;;29.17;64.38
21588;BME280;10956;48.878;13.316;2023-06-22T12:07:47;94206.69;;;29.14;63.40
21588;BME280;10956;48.878;13.316;2023-06-22T12:10:13;94212.91;;;29.15;62.66
21588;BME280;10956;48.878;13.316;2023-06-22T12:12:38;94197.00;;;29.20;62.41
21588;BME280;10956;48.878;13.316;2023-06-22T12:15:04;94203.22;;;29.24;64.60
21588;BME280;10956;48.878;13.316;2023-06-22T12:17:30;94195.88;;;29.29;66.92
21588;BME280;10956;48.878;13.316;2023-06-22T12:19:56;94193.91;;;29.22;66.32
21588;BME280;10956;48.878;13.316;2023-06-22T12:22:21;94186.56;;;29.22;67.74
21588;BME280;10956;48.878;13.316;2023-06-22T12:24:46;94190.03;;;29.23;67.86
21588;BME280;10956;48.878;13.316;2023-06-22T12:27:12;94181.50;;;29.21;66.67
21588;BME280;10956;48.878;13.316;2023-06-22T12:29:37;94183.84;;;29.22;65.72
21588;BME280;10956;48.878;13.316;2023-06-22T12:32:03;94183.84;;;29.26;63.04
21588;BME280;10956;48.878;13.316;2023-06-22T12:34:28;94171.44;;;29.29;63.85
21588;BME280;10956;48.878;13.316;2023-06-22T12:36:54;94172.22;;;29.29;66.37
21588;BME280;10956;48.878;13.316;2023-06-22T12:39:20;94173.78;;;29.37;65.98
21588;BME280;10956;48.878;13.316;2023-06-22T12:41:45;94164.50;;;29.42;65.83
21588;BME280;10956;48.878;13.316;2023-06-22T12:44:10;94173.84;;;29.48;64.32
21588;BME280;10956;48.878;13.316;2023-06-22T12:46:36;94167.63;;;29.51;63.94